sensor_id;sensor_type;location;lat;lon;timestamp;temperature;humidity
18906;DHT22;9585;51.018;4.282;2022-09-09T00:00:34;13.30;99.90
18906;DHT22;9585;51.018;4.282;2022-09-09T00:03:08;13.20;99.90
18906;DHT22;9585;51.018;4.282;2022-09-09T00:05:44;13.20;99.90
18906;DHT22;9585;51.018;4.282;2022-09-09T00:08:19;13.20;99.90
18906;DHT22;9585;51.018;4.282;2022-09-09T00:10:51;13.10;99.90
18906;DHT22;9585;51.018;4.282;2022-09-09T00:13:35;13.10;99.90
18906;DHT22;9585;51.018;4.282;2022-09-09T00:16:14;13.00;99.90
18906;DHT22;9585;51.018;4.282;2022-09-09T00:19:00;13.00;99.90
18906;DHT22;9585;51.018;4.282;2022-09-09T00:21:39;13.10;99.90
18906;DHT22;9585;51.018;4.282;2022-09-09T00:24:15;13.20;99.90
18906;DHT22;9585;51.018;4.282;2022-09-09T00:26:47;13.10;99.90
18906;DHT22;9585;51.018;4.282;2022-09-09T00:29:43;13.20;99.90
18906;DHT22;9585;51.018;4.282;2022-09-09T00:32:13;13.20;99.90
18906;DHT22;9585;51.018;4.282;2022-09-09T00:34:47;13.10;99.90
18906;DHT22;9585;51.018;4.282;2022-09-09T00:37:37;13.20;99.90
18906;DHT22;9585;51.018;4.282;2022-09-09T00:40:22;13.20;99.90
18906;DHT22;9585;51.018;4.282;2022-09-09T00:43:10;13.10;99.90
18906;DHT22;9585;51.018;4.282;2022-09-09T00:46:21;13.20;99.90
18906;DHT22;9585;51.018;4.282;2022-09-09T00:49:00;13.20;99.90
18906;DHT22;9585;51.018;4.282;2022-09-09T00:51:40;13.20;99.90
18906;DHT22;9585;51.018;4.282;2022-09-09T00:54:33;13.10;99.90
18906;DHT22;9585;51.018;4.282;2022-09-09T00:57:12;13.20;99.90
18906;DHT22;9585;51.018;4.282;2022-09-09T00:59:47;13.20;99.90
18906;DHT22;9585;51.018;4.282;2022-09-09T01:02:39;13.30;99.90
18906;DHT22;9585;51.018;4.282;2022-09-09T01:05:15;13.30;99.90
18906;DHT22;9585;51.018;4.282;2022-09-09T01:07:47;13.30;99.90
18906;DHT22;9585;51.018;4.282;2022-09-09T01:10:25;13.30;99.90
18906;DHT22;9585;51.018;4.282;2022-09-09T01:12:56;13.40;99.90
18906;DHT22;9585;51.018;4.282;2022-09-09T01:15:29;13.40;99.90
18906;DHT22;9585;51.018;4.282;2022-09-09T01:18:05;13.40;99.90
18906;DHT22;9585;51.018;4.282;2022-09-09T01:20:39;13.30;99.90
18906;DHT22;9585;51.018;4.282;2022-09-09T01:23:37;13.40;99.90
18906;DHT22;9585;51.018;4.282;2022-09-09T01:26:18;13.40;99.90
18906;DHT22;9585;51.018;4.282;2022-09-09T01:28:47;13.30;99.90
18906;DHT22;9585;51.018;4.282;2022-09-09T01:31:19;13.30;99.90
18906;DHT22;9585;51.018;4.282;2022-09-09T01:33:49;13.30;99.90
18906;DHT22;9585;51.018;4.282;2022-09-09T01:36:23;13.20;99.90
18906;DHT22;9585;51.018;4.282;2022-09-09T01:38:52;13.20;99.90
18906;DHT22;9585;51.018;4.282;2022-09-09T01:41:21;13.20;99.90
18906;DHT22;9585;51.018;4.282;2022-09-09T01:43:49;13.20;99.90
18906;DHT22;9585;51.018;4.282;2022-09-09T01:46:22;13.20;99.90
18906;DHT22;9585;51.018;4.282;2022-09-09T01:48:51;13.20;99.90
18906;DHT22;9585;51.018;4.282;2022-09-09T01:51:19;13.20;99.90
18906;DHT22;9585;51.018;4.282;2022-09-09T01:53:47;13.10;99.90
18906;DHT22;9585;51.018;4.282;2022-09-09T01:56:25;13.10;99.90
18906;DHT22;9585;51.018;4.282;2022-09-09T01:59:17;13.20;99.90
18906;DHT22;9585;51.018;4.282;2022-09-09T02:01:55;13.20;99.90
18906;DHT22;9585;51.018;4.282;2022-09-09T02:04:36;13.20;99.90
18906;DHT22;9585;51.018;4.282;2022-09-09T02:07:09;13.30;99.90
18906;DHT22;9585;51.018;4.282;2022-09-09T02:09:41;13.30;99.90
18906;DHT22;9585;51.018;4.282;2022-09-09T02:12:15;13.30;99.90
18906;DHT22;9585;51.018;4.282;2022-09-09T02:14:49;13.30;99.90
18906;DHT22;9585;51.018;4.282;2022-09-09T02:17:19;13.30;99.90
18906;DHT22;9585;51.018;4.282;2022-09-09T02:19:54;13.40;99.90
18906;DHT22;9585;51.018;4.282;2022-09-09T02:22:24;13.40;99.90
18906;DHT22;9585;51.018;4.282;2022-09-09T02:24:57;13.40;99.90
18906;DHT22;9585;51.018;4.282;2022-09-09T02:27:28;13.40;99.90
18906;DHT22;9585;51.018;4.282;2022-09-09T02:29:57;13.50;99.90
18906;DHT22;9585;51.018;4.282;2022-09-09T02:32:26;13.50;99.90
18906;DHT22;9585;51.018;4.282;2022-09-09T02:34:58;13.50;99.90
18906;DHT22;9585;51.018;4.282;2022-09-09T02:37:39;13.60;99.90
18906;DHT22;9585;51.018;4.282;2022-09-09T02:40:16;13.60;99.90
18906;DHT22;9585;51.018;4.282;2022-09-09T02:42:49;13.60;99.90
18906;DHT22;9585;51.018;4.282;2022-09-09T02:45:19;13.60;99.90
18906;DHT22;9585;51.018;4.282;2022-09-09T02:47:52;13.50;99.90
18906;DHT22;9585;51.018;4.282;2022-09-09T02:50:25;13.60;99.90
18906;DHT22;9585;51.018;4.282;2022-09-09T02:53:02;13.60;99.90
18906;DHT22;9585;51.018;4.282;2022-09-09T02:55:38;13.70;99.90
18906;DHT22;9585;51.018;4.282;2022-09-09T02:58:12;13.60;99.90
18906;DHT22;9585;51.018;4.282;2022-09-09T03:00:44;13.60;99.90
18906;DHT22;9585;51.018;4.282;2022-09-09T03:03:16;13.60;99.90
18906;DHT22;9585;51.018;4.282;2022-09-09T03:05:44;13.70;99.90
18906;DHT22;9585;51.018;4.282;2022-09-09T03:08:12;13.70;99.90
18906;DHT22;9585;51.018;4.282;2022-09-09T03:10:47;13.60;99.90
18906;DHT22;9585;51.018;4.282;2022-09-09T03:13:20;13.70;99.90
18906;DHT22;9585;51.018;4.282;2022-09-09T03:15:50;13.70;99.90
18906;DHT22;9585;51.018;4.282;2022-09-09T03:18:18;13.60;99.90
18906;DHT22;9585;51.018;4.282;2022-09-09T03:20:46;13.60;99.90
18906;DHT22;9585;51.018;4.282;2022-09-09T03:23:14;13.60;99.90
18906;DHT22;9585;51.018;4.282;2022-09-09T03:25:46;13.60;99.90
18906;DHT22;9585;51.018;4.282;2022-09-09T03:28:18;13.60;99.90
18906;DHT22;9585;51.018;4.282;2022-09-09T03:30:49;13.60;99.90
18906;DHT22;9585;51.018;4.282;2022-09-09T03:33:16;13.60;99.90
18906;DHT22;9585;51.018;4.282;2022-09-09T03:35:45;13.60;99.90
18906;DHT22;9585;51.018;4.282;2022-09-09T03:38:14;13.60;99.90
18906;DHT22;9585;51.018;4.282;2022-09-09T03:40:49;13.70;99.90
18906;DHT22;9585;51.018;4.282;2022-09-09T03:43:17;13.70;99.90
18906;DHT22;9585;51.018;4.282;2022-09-09T03:45:47;13.60;99.90
18906;DHT22;9585;51.018;4.282;2022-09-09T03:48:16;13.60;99.90
18906;DHT22;9585;51.018;4.282;2022-09-09T03:50:45;13.60;99.90
18906;DHT22;9585;51.018;4.282;2022-09-09T03:53:13;13.60;99.90
18906;DHT22;9585;51.018;4.282;2022-09-09T03:55:47;13.70;99.90
18906;DHT22;9585;51.018;4.282;2022-09-09T03:58:15;13.70;99.90
18906;DHT22;9585;51.018;4.282;2022-09-09T04:00:47;13.70;99.90
18906;DHT22;9585;51.018;4.282;2022-09-09T04:03:19;13.70;99.90
18906;DHT22;9585;51.018;4.282;2022-09-09T04:05:48;13.70;99.90
18906;DHT22;9585;51.018;4.282;2022-09-09T04:08:16;13.70;99.90
18906;DHT22;9585;51.018;4.282;2022-09-09T04:10:44;13.80;99.90
18906;DHT22;9585;51.018;4.282;2022-09-09T04:13:13;13.70;99.90
18906;DHT22;9585;51.018;4.282;2022-09-09T04:15:48;13.80;99.90
18906;DHT22;9585;51.018;4.282;2022-09-09T04:18:18;13.80;99.90
18906;DHT22;9585;51.018;4.282;2022-09-09T04:20:46;13.80;99.90
18906;DHT22;9585;51.018;4.282;2022-09-09T04:23:14;13.80;99.90
18906;DHT22;9585;51.018;4.282;2022-09-09T04:25:44;13.70;99.90
18906;DHT22;9585;51.018;4.282;2022-09-09T04:28:13;13.70;99.90
18906;DHT22;9585;51.018;4.282;2022-09-09T04:30:43;13.70;99.90
18906;DHT22;9585;51.018;4.282;2022-09-09T04:33:12;13.70;99.90
18906;DHT22;9585;51.018;4.282;2022-09-09T04:35:44;13.70;99.90
18906;DHT22;9585;51.018;4.282;2022-09-09T04:38:12;13.70;99.90
18906;DHT22;9585;51.018;4.282;2022-09-09T04:40:46;13.70;99.90
18906;DHT22;9585;51.018;4.282;2022-09-09T04:43:13;13.70;99.90
18906;DHT22;9585;51.018;4.282;2022-09-09T04:45:41;13.70;99.90
18906;DHT22;9585;51.018;4.282;2022-09-09T04:48:09;13.70;99.90
18906;DHT22;9585;51.018;4.282;2022-09-09T04:50:36;13.60;99.90
18906;DHT22;9585;51.018;4.282;2022-09-09T04:53:06;13.70;99.90
18906;DHT22;9585;51.018;4.282;2022-09-09T04:55:34;13.70;99.90
18906;DHT22;9585;51.018;4.282;2022-09-09T04:58:04;13.70;99.90
18906;DHT22;9585;51.018;4.282;2022-09-09T05:00:32;13.70;99.90
18906;DHT22;9585;51.018;4.282;2022-09-09T05:03:02;13.60;99.90
18906;DHT22;9585;51.018;4.282;2022-09-09T05:05:31;13.70;99.90
18906;DHT22;9585;51.018;4.282;2022-09-09T05:08:01;13.70;99.90
18906;DHT22;9585;51.018;4.282;2022-09-09T05:10:31;13.80;99.90
18906;DHT22;9585;51.018;4.282;2022-09-09T05:12:59;13.80;99.90
18906;DHT22;9585;51.018;4.282;2022-09-09T05:15:29;13.80;99.90
18906;DHT22;9585;51.018;4.282;2022-09-09T05:17:58;13.90;99.90
18906;DHT22;9585;51.018;4.282;2022-09-09T05:20:26;13.90;99.90
18906;DHT22;9585;51.018;4.282;2022-09-09T05:22:54;13.90;99.90
18906;DHT22;9585;51.018;4.282;2022-09-09T05:25:21;14.00;99.90
18906;DHT22;9585;51.018;4.282;2022-09-09T05:27:52;14.00;99.90
18906;DHT22;9585;51.018;4.282;2022-09-09T05:30:23;14.00;99.90
18906;DHT22;9585;51.018;4.282;2022-09-09T05:32:52;14.10;99.90
18906;DHT22;9585;51.018;4.282;2022-09-09T05:35:19;14.10;99.90
18906;DHT22;9585;51.018;4.282;2022-09-09T05:37:46;14.20;99.90
18906;DHT22;9585;51.018;4.282;2022-09-09T05:40:14;14.30;99.90
18906;DHT22;9585;51.018;4.282;2022-09-09T05:42:43;14.40;99.90
18906;DHT22;9585;51.018;4.282;2022-09-09T05:45:11;14.40;99.90
18906;DHT22;9585;51.018;4.282;2022-09-09T05:47:39;14.40;99.90
18906;DHT22;9585;51.018;4.282;2022-09-09T05:50:07;14.40;99.90
18906;DHT22;9585;51.018;4.282;2022-09-09T05:52:34;14.50;99.90
18906;DHT22;9585;51.018;4.282;2022-09-09T05:55:02;14.40;99.90
18906;DHT22;9585;51.018;4.282;2022-09-09T05:57:30;14.40;99.90
18906;DHT22;9585;51.018;4.282;2022-09-09T05:59:57;14.40;99.90
18906;DHT22;9585;51.018;4.282;2022-09-09T06:02:26;14.40;99.90
18906;DHT22;9585;51.018;4.282;2022-09-09T06:04:53;14.40;99.90
18906;DHT22;9585;51.018;4.282;2022-09-09T06:07:21;14.50;99.90
18906;DHT22;9585;51.018;4.282;2022-09-09T06:09:48;14.60;99.90
18906;DHT22;9585;51.018;4.282;2022-09-09T06:12:17;14.70;99.90
18906;DHT22;9585;51.018;4.282;2022-09-09T06:14:52;14.80;99.90
18906;DHT22;9585;51.018;4.282;2022-09-09T06:17:19;15.00;99.90
18906;DHT22;9585;51.018;4.282;2022-09-09T06:19:50;15.20;99.90
18906;DHT22;9585;51.018;4.282;2022-09-09T06:22:18;15.20;99.90
18906;DHT22;9585;51.018;4.282;2022-09-09T06:24:48;15.20;99.90
18906;DHT22;9585;51.018;4.282;2022-09-09T06:27:16;15.20;99.90
18906;DHT22;9585;51.018;4.282;2022-09-09T06:29:44;15.10;99.90
18906;DHT22;9585;51.018;4.282;2022-09-09T06:32:11;15.10;99.90
18906;DHT22;9585;51.018;4.282;2022-09-09T06:34:38;15.10;99.90
18906;DHT22;9585;51.018;4.282;2022-09-09T06:37:09;15.20;99.90
18906;DHT22;9585;51.018;4.282;2022-09-09T06:39:37;15.10;99.90
18906;DHT22;9585;51.018;4.282;2022-09-09T06:42:05;15.20;99.90
18906;DHT22;9585;51.018;4.282;2022-09-09T06:44:34;15.10;99.90
18906;DHT22;9585;51.018;4.282;2022-09-09T06:47:02;15.20;99.90
18906;DHT22;9585;51.018;4.282;2022-09-09T06:49:31;15.30;99.90
18906;DHT22;9585;51.018;4.282;2022-09-09T06:51:58;15.50;99.90
18906;DHT22;9585;51.018;4.282;2022-09-09T06:54:29;16.10;99.90
18906;DHT22;9585;51.018;4.282;2022-09-09T06:56:56;16.30;99.90
18906;DHT22;9585;51.018;4.282;2022-09-09T06:59:26;16.50;99.90
18906;DHT22;9585;51.018;4.282;2022-09-09T07:01:53;16.70;99.90
18906;DHT22;9585;51.018;4.282;2022-09-09T07:04:21;16.80;99.90
18906;DHT22;9585;51.018;4.282;2022-09-09T07:06:49;16.80;99.90
18906;DHT22;9585;51.018;4.282;2022-09-09T07:09:18;16.80;99.90
18906;DHT22;9585;51.018;4.282;2022-09-09T07:11:50;17.00;99.90
18906;DHT22;9585;51.018;4.282;2022-09-09T07:14:18;16.80;99.90
18906;DHT22;9585;51.018;4.282;2022-09-09T07:16:46;16.70;99.90
18906;DHT22;9585;51.018;4.282;2022-09-09T07:19:14;16.50;99.90
18906;DHT22;9585;51.018;4.282;2022-09-09T07:21:42;16.30;99.90
18906;DHT22;9585;51.018;4.282;2022-09-09T07:24:10;16.20;99.90
18906;DHT22;9585;51.018;4.282;2022-09-09T07:26:39;16.10;99.90
18906;DHT22;9585;51.018;4.282;2022-09-09T07:29:10;16.10;99.90
18906;DHT22;9585;51.018;4.282;2022-09-09T07:31:39;16.10;99.90
18906;DHT22;9585;51.018;4.282;2022-09-09T07:34:07;16.30;99.90
18906;DHT22;9585;51.018;4.282;2022-09-09T07:36:35;16.50;99.90
18906;DHT22;9585;51.018;4.282;2022-09-09T07:39:05;16.80;99.90
18906;DHT22;9585;51.018;4.282;2022-09-09T07:41:34;16.70;99.90
18906;DHT22;9585;51.018;4.282;2022-09-09T07:44:09;16.60;99.90
18906;DHT22;9585;51.018;4.282;2022-09-09T07:46:38;16.40;99.90
18906;DHT22;9585;51.018;4.282;2022-09-09T07:49:07;16.30;99.90
18906;DHT22;9585;51.018;4.282;2022-09-09T07:51:37;16.30;99.90
18906;DHT22;9585;51.018;4.282;2022-09-09T07:54:07;16.40;99.90
18906;DHT22;9585;51.018;4.282;2022-09-09T07:56:37;16.20;99.90
18906;DHT22;9585;51.018;4.282;2022-09-09T07:59:09;16.20;99.90
18906;DHT22;9585;51.018;4.282;2022-09-09T08:01:40;16.30;99.90
18906;DHT22;9585;51.018;4.282;2022-09-09T08:04:09;16.30;99.90
18906;DHT22;9585;51.018;4.282;2022-09-09T08:06:42;16.40;99.90
18906;DHT22;9585;51.018;4.282;2022-09-09T08:09:10;16.40;99.90
18906;DHT22;9585;51.018;4.282;2022-09-09T08:11:39;16.40;99.90
18906;DHT22;9585;51.018;4.282;2022-09-09T08:14:09;16.50;99.90
18906;DHT22;9585;51.018;4.282;2022-09-09T08:16:39;16.80;99.90
18906;DHT22;9585;51.018;4.282;2022-09-09T08:19:07;17.00;99.90
18906;DHT22;9585;51.018;4.282;2022-09-09T08:21:37;16.80;99.90
18906;DHT22;9585;51.018;4.282;2022-09-09T08:24:09;16.70;99.90
18906;DHT22;9585;51.018;4.282;2022-09-09T08:26:39;16.60;99.90
18906;DHT22;9585;51.018;4.282;2022-09-09T08:29:13;16.50;99.90
18906;DHT22;9585;51.018;4.282;2022-09-09T08:31:43;16.40;99.90
18906;DHT22;9585;51.018;4.282;2022-09-09T08:34:11;16.50;99.90
18906;DHT22;9585;51.018;4.282;2022-09-09T08:36:40;16.50;99.90
18906;DHT22;9585;51.018;4.282;2022-09-09T08:39:08;16.60;99.90
18906;DHT22;9585;51.018;4.282;2022-09-09T08:42:05;16.60;99.90
18906;DHT22;9585;51.018;4.282;2022-09-09T08:44:59;16.50;99.90
18906;DHT22;9585;51.018;4.282;2022-09-09T08:47:35;16.40;99.90
18906;DHT22;9585;51.018;4.282;2022-09-09T08:50:16;16.30;99.90
18906;DHT22;9585;51.018;4.282;2022-09-09T08:52:53;16.10;99.90
18906;DHT22;9585;51.018;4.282;2022-09-09T08:55:26;16.10;99.90
18906;DHT22;9585;51.018;4.282;2022-09-09T08:57:58;16.10;99.90
18906;DHT22;9585;51.018;4.282;2022-09-09T09:00:33;16.10;99.90
18906;DHT22;9585;51.018;4.282;2022-09-09T09:03:09;16.00;99.90
18906;DHT22;9585;51.018;4.282;2022-09-09T09:05:49;15.90;99.90
18906;DHT22;9585;51.018;4.282;2022-09-09T09:08:26;15.90;99.90
18906;DHT22;9585;51.018;4.282;2022-09-09T09:10:57;15.90;99.90
18906;DHT22;9585;51.018;4.282;2022-09-09T09:13:35;15.80;99.90
18906;DHT22;9585;51.018;4.282;2022-09-09T09:16:26;15.80;99.90
18906;DHT22;9585;51.018;4.282;2022-09-09T09:18:58;15.90;99.90
18906;DHT22;9585;51.018;4.282;2022-09-09T09:21:36;15.80;99.90
18906;DHT22;9585;51.018;4.282;2022-09-09T09:24:07;15.90;99.90
18906;DHT22;9585;51.018;4.282;2022-09-09T09:26:43;15.70;99.90
18906;DHT22;9585;51.018;4.282;2022-09-09T09:29:12;15.80;99.90
18906;DHT22;9585;51.018;4.282;2022-09-09T09:31:45;15.90;99.90
18906;DHT22;9585;51.018;4.282;2022-09-09T09:34:15;15.90;99.90
18906;DHT22;9585;51.018;4.282;2022-09-09T09:36:45;15.90;99.90
18906;DHT22;9585;51.018;4.282;2022-09-09T09:39:23;16.00;99.90
18906;DHT22;9585;51.018;4.282;2022-09-09T09:41:54;16.10;99.90
18906;DHT22;9585;51.018;4.282;2022-09-09T09:44:25;16.30;99.90
18906;DHT22;9585;51.018;4.282;2022-09-09T09:47:07;16.40;99.90
18906;DHT22;9585;51.018;4.282;2022-09-09T09:49:34;16.50;99.90
18906;DHT22;9585;51.018;4.282;2022-09-09T09:52:04;16.60;99.90
18906;DHT22;9585;51.018;4.282;2022-09-09T09:54:33;16.60;99.90
18906;DHT22;9585;51.018;4.282;2022-09-09T09:57:11;16.60;99.90
18906;DHT22;9585;51.018;4.282;2022-09-09T09:59:40;16.70;99.90
18906;DHT22;9585;51.018;4.282;2022-09-09T10:02:17;16.70;99.90
18906;DHT22;9585;51.018;4.282;2022-09-09T10:04:46;16.70;99.90
18906;DHT22;9585;51.018;4.282;2022-09-09T10:07:18;16.70;99.90
18906;DHT22;9585;51.018;4.282;2022-09-09T10:09:48;16.60;99.90
18906;DHT22;9585;51.018;4.282;2022-09-09T10:12:27;16.60;99.90
18906;DHT22;9585;51.018;4.282;2022-09-09T10:15:02;16.60;99.90
18906;DHT22;9585;51.018;4.282;2022-09-09T10:17:40;16.60;99.90
18906;DHT22;9585;51.018;4.282;2022-09-09T10:20:20;16.70;99.90
18906;DHT22;9585;51.018;4.282;2022-09-09T10:22:54;16.70;99.90
18906;DHT22;9585;51.018;4.282;2022-09-09T10:25:49;16.90;99.90
18906;DHT22;9585;51.018;4.282;2022-09-09T10:28:33;17.00;99.90
18906;DHT22;9585;51.018;4.282;2022-09-09T10:31:15;17.00;99.90
18906;DHT22;9585;51.018;4.282;2022-09-09T10:33:57;17.10;99.90
18906;DHT22;9585;51.018;4.282;2022-09-09T10:36:28;17.30;99.90
18906;DHT22;9585;51.018;4.282;2022-09-09T10:39:00;17.30;99.90
18906;DHT22;9585;51.018;4.282;2022-09-09T10:41:39;17.40;99.90
18906;DHT22;9585;51.018;4.282;2022-09-09T10:44:20;17.40;99.90
18906;DHT22;9585;51.018;4.282;2022-09-09T10:47:00;17.30;99.90
18906;DHT22;9585;51.018;4.282;2022-09-09T10:49:51;17.20;99.90
18906;DHT22;9585;51.018;4.282;2022-09-09T10:52:26;17.10;99.90
18906;DHT22;9585;51.018;4.282;2022-09-09T10:54:59;17.00;99.90
18906;DHT22;9585;51.018;4.282;2022-09-09T10:57:31;17.00;99.90
18906;DHT22;9585;51.018;4.282;2022-09-09T11:00:05;16.90;99.90
18906;DHT22;9585;51.018;4.282;2022-09-09T11:02:35;16.80;99.90
18906;DHT22;9585;51.018;4.282;2022-09-09T11:05:16;16.80;99.90
18906;DHT22;9585;51.018;4.282;2022-09-09T11:07:49;16.80;99.90
18906;DHT22;9585;51.018;4.282;2022-09-09T11:10:24;16.80;99.90
18906;DHT22;9585;51.018;4.282;2022-09-09T11:12:56;16.90;99.90
18906;DHT22;9585;51.018;4.282;2022-09-09T11:15:31;16.90;99.90
18906;DHT22;9585;51.018;4.282;2022-09-09T11:18:02;17.00;99.90
18906;DHT22;9585;51.018;4.282;2022-09-09T11:20:33;17.30;99.90
18906;DHT22;9585;51.018;4.282;2022-09-09T11:23:04;17.40;99.90
18906;DHT22;9585;51.018;4.282;2022-09-09T11:25:35;17.70;99.90
18906;DHT22;9585;51.018;4.282;2022-09-09T11:31:21;18.10;99.90
18906;DHT22;9585;51.018;4.282;2022-09-09T11:34:19;18.20;99.90
18906;DHT22;9585;51.018;4.282;2022-09-09T11:37:10;18.60;99.90
18906;DHT22;9585;51.018;4.282;2022-09-09T11:40:00;18.40;99.90
18906;DHT22;9585;51.018;4.282;2022-09-09T11:42:28;18.50;99.90
18906;DHT22;9585;51.018;4.282;2022-09-09T11:44:57;18.50;99.90
18906;DHT22;9585;51.018;4.282;2022-09-09T11:47:26;18.40;99.90
18906;DHT22;9585;51.018;4.282;2022-09-09T11:50:22;18.30;99.90
18906;DHT22;9585;51.018;4.282;2022-09-09T11:56:00;18.30;99.90
18906;DHT22;9585;51.018;4.282;2022-09-09T11:58:37;18.50;99.90
18906;DHT22;9585;51.018;4.282;2022-09-09T12:01:30;18.60;99.90
18906;DHT22;9585;51.018;4.282;2022-09-09T12:04:26;19.00;99.90
18906;DHT22;9585;51.018;4.282;2022-09-09T12:06:57;19.00;99.90
18906;DHT22;9585;51.018;4.282;2022-09-09T12:09:33;18.70;99.90
18906;DHT22;9585;51.018;4.282;2022-09-09T12:12:24;18.60;99.90
18906;DHT22;9585;51.018;4.282;2022-09-09T12:14:58;18.60;99.90
18906;DHT22;9585;51.018;4.282;2022-09-09T12:17:28;18.60;99.90
18906;DHT22;9585;51.018;4.282;2022-09-09T12:20:06;18.80;99.90
18906;DHT22;9585;51.018;4.282;2022-09-09T12:22:45;19.20;99.90
18906;DHT22;9585;51.018;4.282;2022-09-09T12:25:26;19.40;99.90
18906;DHT22;9585;51.018;4.282;2022-09-09T12:28:04;19.40;99.90
18906;DHT22;9585;51.018;4.282;2022-09-09T12:30:39;19.40;99.90
18906;DHT22;9585;51.018;4.282;2022-09-09T12:33:11;19.40;99.90
18906;DHT22;9585;51.018;4.282;2022-09-09T12:35:43;19.40;99.90
18906;DHT22;9585;51.018;4.282;2022-09-09T12:38:13;19.30;99.90
18906;DHT22;9585;51.018;4.282;2022-09-09T12:40:54;19.40;99.90
18906;DHT22;9585;51.018;4.282;2022-09-09T12:43:23;19.30;99.90
18906;DHT22;9585;51.018;4.282;2022-09-09T12:45:52;19.40;99.90
18906;DHT22;9585;51.018;4.282;2022-09-09T12:48:29;19.30;99.90
18906;DHT22;9585;51.018;4.282;2022-09-09T12:50:57;19.30;99.90
18906;DHT22;9585;51.018;4.282;2022-09-09T12:53:29;19.20;99.90
18906;DHT22;9585;51.018;4.282;2022-09-09T12:56:00;19.30;99.90
18906;DHT22;9585;51.018;4.282;2022-09-09T12:58:30;19.60;99.90
18906;DHT22;9585;51.018;4.282;2022-09-09T13:00:59;19.80;99.90
18906;DHT22;9585;51.018;4.282;2022-09-09T13:03:31;20.10;99.90
18906;DHT22;9585;51.018;4.282;2022-09-09T13:06:12;20.20;99.90
18906;DHT22;9585;51.018;4.282;2022-09-09T13:08:40;20.00;99.90
18906;DHT22;9585;51.018;4.282;2022-09-09T13:11:13;19.50;99.90
18906;DHT22;9585;51.018;4.282;2022-09-09T13:13:43;19.30;99.90
18906;DHT22;9585;51.018;4.282;2022-09-09T13:16:22;19.10;99.90
18906;DHT22;9585;51.018;4.282;2022-09-09T13:18:50;19.10;99.90
18906;DHT22;9585;51.018;4.282;2022-09-09T13:21:18;19.10;99.90
18906;DHT22;9585;51.018;4.282;2022-09-09T13:23:50;19.30;99.90
18906;DHT22;9585;51.018;4.282;2022-09-09T13:26:24;19.50;99.90
18906;DHT22;9585;51.018;4.282;2022-09-09T13:28:52;19.90;99.90
18906;DHT22;9585;51.018;4.282;2022-09-09T13:31:28;20.10;99.90
18906;DHT22;9585;51.018;4.282;2022-09-09T13:33:55;20.20;99.90
18906;DHT22;9585;51.018;4.282;2022-09-09T13:36:30;20.30;99.90
18906;DHT22;9585;51.018;4.282;2022-09-09T13:38:59;20.40;99.90
18906;DHT22;9585;51.018;4.282;2022-09-09T13:41:32;20.40;99.90
18906;DHT22;9585;51.018;4.282;2022-09-09T13:44:00;20.30;99.90
18906;DHT22;9585;51.018;4.282;2022-09-09T13:46:32;20.20;99.90
18906;DHT22;9585;51.018;4.282;2022-09-09T13:49:02;20.10;99.90
18906;DHT22;9585;51.018;4.282;2022-09-09T13:51:46;20.10;99.90
18906;DHT22;9585;51.018;4.282;2022-09-09T13:54:17;20.20;99.90
18906;DHT22;9585;51.018;4.282;2022-09-09T13:56:46;20.30;99.90
18906;DHT22;9585;51.018;4.282;2022-09-09T13:59:17;20.20;99.90
18906;DHT22;9585;51.018;4.282;2022-09-09T14:01:46;20.00;99.90
18906;DHT22;9585;51.018;4.282;2022-09-09T14:04:15;19.70;99.90
18906;DHT22;9585;51.018;4.282;2022-09-09T14:06:42;19.70;99.90
18906;DHT22;9585;51.018;4.282;2022-09-09T14:09:11;19.70;99.90
18906;DHT22;9585;51.018;4.282;2022-09-09T14:11:39;19.60;99.90
18906;DHT22;9585;51.018;4.282;2022-09-09T14:14:08;19.70;99.90
18906;DHT22;9585;51.018;4.282;2022-09-09T14:16:35;19.60;99.90
18906;DHT22;9585;51.018;4.282;2022-09-09T14:19:03;19.60;99.90
18906;DHT22;9585;51.018;4.282;2022-09-09T14:21:30;19.70;99.90
18906;DHT22;9585;51.018;4.282;2022-09-09T14:23:58;19.90;99.90
18906;DHT22;9585;51.018;4.282;2022-09-09T14:26:25;20.10;99.90
18906;DHT22;9585;51.018;4.282;2022-09-09T14:28:54;20.20;99.90
18906;DHT22;9585;51.018;4.282;2022-09-09T14:31:24;20.20;99.90
18906;DHT22;9585;51.018;4.282;2022-09-09T14:33:51;20.20;99.90
18906;DHT22;9585;51.018;4.282;2022-09-09T14:36:19;20.10;99.90
18906;DHT22;9585;51.018;4.282;2022-09-09T14:38:48;20.00;99.90
18906;DHT22;9585;51.018;4.282;2022-09-09T14:41:17;20.00;99.90
18906;DHT22;9585;51.018;4.282;2022-09-09T14:43:49;20.10;99.90
18906;DHT22;9585;51.018;4.282;2022-09-09T14:46:20;20.00;99.90
18906;DHT22;9585;51.018;4.282;2022-09-09T14:48:49;19.90;99.90
18906;DHT22;9585;51.018;4.282;2022-09-09T14:51:18;19.70;99.90
18906;DHT22;9585;51.018;4.282;2022-09-09T14:53:50;19.60;99.90
18906;DHT22;9585;51.018;4.282;2022-09-09T14:56:20;19.60;99.90
18906;DHT22;9585;51.018;4.282;2022-09-09T14:58:48;19.60;99.90
18906;DHT22;9585;51.018;4.282;2022-09-09T15:01:18;19.60;99.90
18906;DHT22;9585;51.018;4.282;2022-09-09T15:03:51;19.60;99.90
18906;DHT22;9585;51.018;4.282;2022-09-09T15:06:19;19.40;99.90
18906;DHT22;9585;51.018;4.282;2022-09-09T15:08:47;19.30;99.90
18906;DHT22;9585;51.018;4.282;2022-09-09T15:11:16;19.30;99.90
18906;DHT22;9585;51.018;4.282;2022-09-09T15:13:44;19.20;99.90
18906;DHT22;9585;51.018;4.282;2022-09-09T15:16:14;19.20;99.90
18906;DHT22;9585;51.018;4.282;2022-09-09T15:18:42;18.90;99.90
18906;DHT22;9585;51.018;4.282;2022-09-09T15:21:13;18.30;99.90
18906;DHT22;9585;51.018;4.282;2022-09-09T15:23:44;17.60;99.90
18906;DHT22;9585;51.018;4.282;2022-09-09T15:26:13;17.30;99.90
18906;DHT22;9585;51.018;4.282;2022-09-09T15:28:41;17.20;99.90
18906;DHT22;9585;51.018;4.282;2022-09-09T15:31:14;17.20;99.90
18906;DHT22;9585;51.018;4.282;2022-09-09T15:33:47;17.30;99.90
18906;DHT22;9585;51.018;4.282;2022-09-09T15:36:18;17.30;99.90
18906;DHT22;9585;51.018;4.282;2022-09-09T15:38:46;17.40;99.90
18906;DHT22;9585;51.018;4.282;2022-09-09T15:41:13;17.50;99.90
18906;DHT22;9585;51.018;4.282;2022-09-09T15:43:44;17.50;99.90
18906;DHT22;9585;51.018;4.282;2022-09-09T15:46:33;17.50;99.90
18906;DHT22;9585;51.018;4.282;2022-09-09T15:49:07;17.50;99.90
18906;DHT22;9585;51.018;4.282;2022-09-09T15:51:39;17.50;99.90
18906;DHT22;9585;51.018;4.282;2022-09-09T15:54:08;17.50;99.90
18906;DHT22;9585;51.018;4.282;2022-09-09T15:56:42;17.50;99.90
18906;DHT22;9585;51.018;4.282;2022-09-09T15:59:10;17.60;99.90
18906;DHT22;9585;51.018;4.282;2022-09-09T16:01:38;17.60;99.90
18906;DHT22;9585;51.018;4.282;2022-09-09T16:04:08;17.70;99.90
18906;DHT22;9585;51.018;4.282;2022-09-09T16:06:37;17.60;99.90
18906;DHT22;9585;51.018;4.282;2022-09-09T16:09:10;17.60;99.90
18906;DHT22;9585;51.018;4.282;2022-09-09T16:11:40;17.60;99.90
18906;DHT22;9585;51.018;4.282;2022-09-09T16:14:12;17.60;99.90
18906;DHT22;9585;51.018;4.282;2022-09-09T16:16:39;17.70;99.90
18906;DHT22;9585;51.018;4.282;2022-09-09T16:19:08;17.70;99.90
18906;DHT22;9585;51.018;4.282;2022-09-09T16:21:40;17.60;99.90
18906;DHT22;9585;51.018;4.282;2022-09-09T16:24:11;17.50;99.90